Time;durP1;ratioP1;P1;durP2;ratioP2;P2;SDS_P1;SDS_P2;PMS_P1;PMS_P2;Temp;Humidity;BMP_temperature;BMP_pressure;BME280_temperature;BME280_humidity;BME280_pressure;Samples;Min_cycle;Max_cycle;Signal;HPM_P1;HPM_P2
2021/03/30 00:01:41;;;;;;;;;;;;;;;4.77;62.57;97960.81;1767914;80;20218;-60
2021/03/30 00:04:08;;;;;;;;;;;;;;;4.76;62.72;97959.12;1784602;80;20226;-59
2021/03/30 00:06:36;;;;;;;;;;;;;;;4.81;62.61;97959.00;1784341;80;20218;-61
2021/03/30 00:09:05;;;;;;;;;;;;;;;4.81;62.60;97953.41;1783242;80;20288;-60
2021/03/30 00:11:34;;;;;;;;;;;;;;;4.81;62.67;97957.72;1762550;79;20250;-61
2021/03/30 00:14:02;;;;;;;;;;;;;;;4.77;62.64;97960.36;1754183;80;20217;-61
2021/03/30 00:16:29;;;;;;;;;;;;;;;4.73;62.83;97961.77;1779748;80;20219;-61
2021/03/30 00:18:57;;;;;;;;;;;;;;;4.70;63.00;97955.41;1785347;79;20222;-59
2021/03/30 00:21:24;;;;;;;;;;;;;;;4.72;63.01;97963.91;1769711;80;20513;-60
2021/03/30 00:23:52;;;;;;;;;;;;;;;4.70;63.08;97957.98;1777217;80;21207;-60
2021/03/30 00:26:20;;;;;;;;;;;;;;;4.69;63.14;97957.59;1778034;80;20482;-61
2021/03/30 00:28:47;;;;;;;;;;;;;;;4.66;63.32;97949.50;1769112;78;20261;-61
2021/03/30 00:31:14;;;;;;;;;;;;;;;4.66;63.34;97948.67;1785037;79;20242;-61
2021/03/30 00:33:41;;;;;;;;;;;;;;;4.66;63.32;97950.79;1772816;80;20238;-61
2021/03/30 00:36:09;;;;;;;;;;;;;;;4.60;63.42;97949.65;1764486;79;21986;-60
2021/03/30 00:38:36;;;;;;;;;;;;;;;4.53;63.59;97954.09;1775165;80;20230;-61
2021/03/30 00:41:03;;;;;;;;;;;;;;;4.51;63.69;97953.75;1776822;80;20231;-61
2021/03/30 00:43:31;;;;;;;;;;;;;;;4.48;63.82;97948.68;1765062;79;20257;-61
2021/03/30 00:45:59;;;;;;;;;;;;;;;4.50;63.86;97948.19;1777818;80;20238;-60
2021/03/30 00:48:27;;;;;;;;;;;;;;;4.53;63.85;97950.69;1785285;79;23525;-61
2021/03/30 00:50:56;;;;;;;;;;;;;;;4.57;63.67;97942.87;1760311;80;20205;-61
2021/03/30 00:53:43;;;;;;;;;;;;;;;4.62;63.48;97949.16;1781089;79;20328;-60
2021/03/30 00:56:25;;;;;;;;;;;;;;;4.64;63.43;97948.70;1778436;79;20490;-60
2021/03/30 00:58:55;;;;;;;;;;;;;;;4.67;63.34;97942.20;1799449;79;20226;-60
2021/03/30 01:01:22;;;;;;;;;;;;;;;4.69;63.28;97944.73;1794476;79;22189;-60
2021/03/30 01:03:50;;;;;;;;;;;;;;;4.66;63.39;97946.93;1799928;78;20218;-61
2021/03/30 01:06:17;;;;;;;;;;;;;;;4.65;63.40;97948.25;1794374;79;20243;-61
2021/03/30 01:08:51;;;;;;;;;;;;;;;4.67;63.55;97942.63;1794311;79;20238;-61
2021/03/30 01:11:41;;;;;;;;;;;;;;;4.70;63.54;97943.38;1781535;79;20249;-62
2021/03/30 01:14:21;;;;;;;;;;;;;;;4.76;63.33;97943.23;1793445;79;21209;-61
2021/03/30 01:16:52;;;;;;;;;;;;;;;4.87;63.31;97943.39;1799938;78;20242;-60
2021/03/30 01:19:26;;;;;;;;;;;;;;;4.95;63.06;97938.47;1799348;79;20217;-59
2021/03/30 01:22:18;;;;;;;;;;;;;;;5.00;62.79;97945.20;1786327;79;20787;-60
2021/03/30 01:24:49;;;;;;;;;;;;;;;5.04;62.62;97941.69;1793735;79;20222;-60
2021/03/30 01:27:26;;;;;;;;;;;;;;;5.05;62.45;97940.36;1773045;79;21196;-60
2021/03/30 01:30:03;;;;;;;;;;;;;;;5.14;62.36;97934.95;1848091;76;20221;-61
2021/03/30 01:32:39;;;;;;;;;;;;;;;5.15;62.22;97938.39;1790426;79;20214;-61
2021/03/30 01:35:11;;;;;;;;;;;;;;;5.17;62.20;97936.61;1786282;79;21192;-61
2021/03/30 01:37:43;;;;;;;;;;;;;;;5.22;61.94;97930.89;1796971;77;20131;-59
2021/03/30 01:40:11;;;;;;;;;;;;;;;5.25;61.80;97929.52;1797320;79;20521;-60
2021/03/30 01:42:39;;;;;;;;;;;;;;;5.27;61.73;97932.05;1761264;79;20223;-59
2021/03/30 01:45:08;;;;;;;;;;;;;;;5.23;61.80;97921.43;1785993;79;20498;-60
2021/03/30 01:47:37;;;;;;;;;;;;;;;5.21;61.76;97923.20;1817546;79;21251;-61
2021/03/30 01:50:06;;;;;;;;;;;;;;;5.13;61.98;97928.13;1817751;79;20132;-60
2021/03/30 01:52:33;;;;;;;;;;;;;;;5.16;62.04;97925.48;1800673;78;20202;-60
2021/03/30 01:55:01;;;;;;;;;;;;;;;5.18;61.95;97925.44;1809343;77;20216;-61
2021/03/30 01:57:29;;;;;;;;;;;;;;;5.19;61.93;97925.82;1797050;79;20212;-60
2021/03/30 01:59:56;;;;;;;;;;;;;;;5.16;62.09;97931.91;1789113;79;22100;-60
2021/03/30 02:02:24;;;;;;;;;;;;;;;5.14;62.14;97932.38;1801836;79;20311;-60
2021/03/30 02:04:51;;;;;;;;;;;;;;;5.18;62.17;97921.58;1818066;78;20228;-60
2021/03/30 02:07:21;;;;;;;;;;;;;;;5.22;62.03;97921.88;1793057;79;20216;-62
2021/03/30 02:09:54;;;;;;;;;;;;;;;5.27;61.89;97924.33;1802543;77;20236;-62
2021/03/30 02:12:19;;;;;;;;;;;;;;;5.29;61.84;97916.95;1802475;79;21359;-61
2021/03/30 02:14:47;;;;;;;;;;;;;;;5.35;61.69;97922.39;1812130;79;20526;-61
2021/03/30 02:17:42;;;;;;;;;;;;;;;5.38;61.55;97921.02;1764606;79;20213;-61
2021/03/30 02:20:14;;;;;;;;;;;;;;;5.41;61.48;97922.64;1792317;79;20226;-61
2021/03/30 02:22:58;;;;;;;;;;;;;;;5.45;61.43;97924.27;1794281;79;20506;-61
2021/03/30 02:25:25;;;;;;;;;;;;;;;5.50;61.24;97923.68;1786131;79;22621;-60
2021/03/30 02:27:53;;;;;;;;;;;;;;;5.48;61.20;97914.72;1786117;79;20219;-60
2021/03/30 02:30:22;;;;;;;;;;;;;;;5.45;61.33;97917.38;1798353;79;20253;-60
2021/03/30 02:32:49;;;;;;;;;;;;;;;5.44;61.48;97918.25;1799021;77;20243;-60
2021/03/30 02:35:18;;;;;;;;;;;;;;;5.46;61.49;97922.06;1785951;80;20222;-59
2021/03/30 02:37:45;;;;;;;;;;;;;;;5.50;61.38;97913.38;1796752;79;21369;-61
2021/03/30 02:40:15;;;;;;;;;;;;;;;5.51;61.17;97915.08;1816601;79;20259;-60
2021/03/30 02:42:45;;;;;;;;;;;;;;;5.50;61.23;97918.53;1800582;79;20218;-60
2021/03/30 02:45:15;;;;;;;;;;;;;;;5.46;61.18;97913.92;1798719;77;20212;-60
2021/03/30 02:47:44;;;;;;;;;;;;;;;5.41;61.50;97908.48;1793687;78;20223;-60
2021/03/30 02:50:13;;;;;;;;;;;;;;;5.43;61.50;97912.72;1787146;79;21199;-60
2021/03/30 02:52:41;;;;;;;;;;;;;;;5.47;61.34;97907.86;1785885;79;20211;-59
2021/03/30 02:55:10;;;;;;;;;;;;;;;5.52;61.24;97913.72;1785652;79;20231;-63
2021/03/30 02:57:39;;;;;;;;;;;;;;;5.56;61.25;97915.78;1785402;79;20234;-62
2021/03/30 03:00:11;;;;;;;;;;;;;;;5.57;60.92;97913.59;1785447;80;20234;-61
2021/03/30 03:02:38;;;;;;;;;;;;;;;5.56;61.05;97919.65;1785641;77;21492;-62
2021/03/30 03:05:08;;;;;;;;;;;;;;;5.62;60.93;97910.44;1807937;79;20219;-62
2021/03/30 03:07:37;;;;;;;;;;;;;;;5.64;60.84;97909.97;1791141;79;20484;-61
2021/03/30 03:10:06;;;;;;;;;;;;;;;5.61;60.84;97921.64;1813705;79;20212;-61
2021/03/30 03:12:39;;;;;;;;;;;;;;;5.56;60.93;97920.94;1805326;79;20206;-62
2021/03/30 03:15:11;;;;;;;;;;;;;;;5.53;61.13;97919.28;1785281;79;21201;-62
2021/03/30 03:17:43;;;;;;;;;;;;;;;5.52;61.15;97921.44;1793014;79;20216;-61
2021/03/30 03:20:12;;;;;;;;;;;;;;;5.52;61.18;97917.58;1806106;77;20241;-60
2021/03/30 03:22:39;;;;;;;;;;;;;;;5.53;61.16;97912.84;1786878;79;20498;-61
2021/03/30 03:25:10;;;;;;;;;;;;;;;5.53;61.16;97914.59;1785519;79;20214;-61
2021/03/30 03:27:38;;;;;;;;;;;;;;;5.55;61.15;97911.97;1785487;79;23523;-61
2021/03/30 03:30:06;;;;;;;;;;;;;;;5.56;61.19;97911.92;1800501;79;20245;-61
2021/03/30 03:32:34;;;;;;;;;;;;;;;5.61;61.08;97911.77;1826947;78;20183;-61
2021/03/30 03:35:01;;;;;;;;;;;;;;;5.62;60.98;97902.70;1822385;78;20230;-62
2021/03/30 03:37:30;;;;;;;;;;;;;;;5.62;60.88;97906.57;1819270;76;20491;-60
2021/03/30 03:39:58;;;;;;;;;;;;;;;5.63;60.98;97905.70;1827782;78;21205;-61
2021/03/30 03:42:25;;;;;;;;;;;;;;;5.66;60.81;97904.78;1810052;78;20220;-61
2021/03/30 03:44:53;;;;;;;;;;;;;;;5.62;60.90;97909.60;1805935;78;20246;-61
2021/03/30 03:47:23;;;;;;;;;;;;;;;5.61;61.03;97910.48;1805227;79;20245;-61
2021/03/30 03:49:50;;;;;;;;;;;;;;;5.63;61.01;97914.70;1810468;76;20229;-61
2021/03/30 03:52:17;;;;;;;;;;;;;;;5.61;61.04;97922.93;1805249;78;21269;-60
2021/03/30 03:54:45;;;;;;;;;;;;;;;5.63;61.10;97923.72;1815393;78;20214;-62
2021/03/30 03:57:24;;;;;;;;;;;;;;;5.67;60.99;97918.03;1811189;78;20214;-62
2021/03/30 03:59:52;;;;;;;;;;;;;;;5.69;60.91;97918.40;1805178;79;20238;-61
2021/03/30 04:02:24;;;;;;;;;;;;;;;5.71;60.88;97912.75;1836260;78;20243;-60
2021/03/30 04:05:04;;;;;;;;;;;;;;;5.69;60.90;97906.81;1780433;79;21363;-60
2021/03/30 04:07:56;;;;;;;;;;;;;;;5.69;60.96;97908.09;1810527;76;20273;-60
2021/03/30 04:10:27;;;;;;;;;;;;;;;5.66;61.02;97910.76;1770025;81;20504;-61
2021/03/30 04:12:54;;;;;;;;;;;;;;;5.59;61.22;97916.12;1797449;79;20489;-61
2021/03/30 04:15:24;;;;;;;;;;;;;;;5.58;61.44;97915.29;1743794;81;20303;-60
2021/03/30 04:17:53;;;;;;;;;;;;;;;5.52;61.65;97919.32;1751786;81;21208;-60
2021/03/30 04:20:20;;;;;;;;;;;;;;;5.47;61.74;97917.33;1769540;80;20500;-62
2021/03/30 04:22:58;;;;;;;;;;;;;;;5.44;61.72;97915.67;1770694;80;20220;-60
2021/03/30 04:25:28;;;;;;;;;;;;;;;5.40;61.95;97921.81;1764936;80;20216;-61
2021/03/30 04:27:55;;;;;;;;;;;;;;;5.37;62.06;97928.33;1764350;80;20525;-60
2021/03/30 04:30:24;;;;;;;;;;;;;;;5.44;62.03;97918.70;1761403;80;21209;-60
2021/03/30 04:32:51;;;;;;;;;;;;;;;5.47;61.92;97923.31;1784734;80;20143;-61
2021/03/30 04:35:18;;;;;;;;;;;;;;;5.57;61.72;97921.77;1756294;80;20233;-60
2021/03/30 04:37:46;;;;;;;;;;;;;;;5.64;61.60;97918.98;1766791;80;20499;-60
2021/03/30 04:40:16;;;;;;;;;;;;;;;5.70;61.30;97923.09;1779727;80;20221;-61
2021/03/30 04:42:43;;;;;;;;;;;;;;;5.73;61.29;97921.72;1769451;80;21200;-60
2021/03/30 04:45:11;;;;;;;;;;;;;;;5.77;61.23;97917.31;1755748;80;20224;-60
2021/03/30 04:47:39;;;;;;;;;;;;;;;5.79;61.08;97920.26;1762350;80;20506;-60
2021/03/30 04:50:07;;;;;;;;;;;;;;;5.81;60.98;97922.33;1782126;80;20257;-60
2021/03/30 04:52:36;;;;;;;;;;;;;;;5.84;61.00;97923.53;1769227;80;20383;-61
2021/03/30 04:55:05;;;;;;;;;;;;;;;5.88;60.88;97915.27;1784407;80;21365;-62
2021/03/30 04:57:32;;;;;;;;;;;;;;;5.89;60.81;97909.23;1777909;80;20498;-63
2021/03/30 05:00:00;;;;;;;;;;;;;;;5.90;60.84;97919.49;1786604;80;20231;-61
2021/03/30 05:02:28;;;;;;;;;;;;;;;5.92;60.82;97921.16;1764350;80;20217;-61
2021/03/30 05:04:55;;;;;;;;;;;;;;;5.93;60.84;97922.40;1765777;80;20210;-61
2021/03/30 05:07:22;;;;;;;;;;;;;;;5.95;60.92;97932.20;1779290;80;21250;-61
2021/03/30 05:09:50;;;;;;;;;;;;;;;6.00;60.77;97926.53;1764265;80;20235;-61
2021/03/30 05:12:18;;;;;;;;;;;;;;;6.10;60.70;97933.95;1781875;80;20219;-61
2021/03/30 05:14:45;;;;;;;;;;;;;;;6.19;60.36;97936.25;1781343;80;20247;-61
2021/03/30 05:17:12;;;;;;;;;;;;;;;6.29;60.17;97938.09;1782100;80;20211;-60
2021/03/30 05:19:41;;;;;;;;;;;;;;;6.39;59.83;97937.73;1777337;80;21208;-60
2021/03/30 05:22:08;;;;;;;;;;;;;;;6.45;59.73;97941.88;1771597;80;20249;-61
2021/03/30 05:24:35;;;;;;;;;;;;;;;6.53;59.54;97940.31;1786578;80;20222;-61
2021/03/30 05:27:04;;;;;;;;;;;;;;;6.55;59.34;97942.42;1770163;80;20258;-61
2021/03/30 05:29:31;;;;;;;;;;;;;;;6.54;59.31;97943.30;1781768;80;20222;-61
2021/03/30 05:31:59;;;;;;;;;;;;;;;6.58;59.10;97943.61;1781938;80;22197;-61
2021/03/30 05:34:26;;;;;;;;;;;;;;;6.59;59.19;97949.98;1786652;80;20242;-61
2021/03/30 05:36:53;;;;;;;;;;;;;;;6.63;59.05;97954.61;1787880;80;20270;-62
2021/03/30 05:39:22;;;;;;;;;;;;;;;6.62;59.25;97954.20;1782489;80;20226;-62
2021/03/30 05:41:49;;;;;;;;;;;;;;;6.70;59.09;97953.51;1782965;80;20235;-61
2021/03/30 05:44:16;;;;;;;;;;;;;;;6.74;58.83;97951.23;1755781;80;21213;-60
2021/03/30 05:46:46;;;;;;;;;;;;;;;6.74;58.82;97951.23;1755495;81;20911;-60
2021/03/30 05:49:13;;;;;;;;;;;;;;;6.75;58.86;97952.91;1779395;80;20273;-60
2021/03/30 05:51:40;;;;;;;;;;;;;;;6.74;58.89;97951.66;1759171;80;20217;-60
2021/03/30 05:54:09;;;;;;;;;;;;;;;6.80;58.96;97960.04;1755720;80;20224;-60
2021/03/30 05:56:38;;;;;;;;;;;;;;;6.91;58.74;97954.53;1764894;80;21204;-61
2021/03/30 05:59:06;;;;;;;;;;;;;;;7.03;58.67;97963.59;1763924;80;21864;-62
2021/03/30 06:01:33;;;;;;;;;;;;;;;7.17;58.31;97960.09;1786531;80;20226;-61
2021/03/30 06:04:02;;;;;;;;;;;;;;;7.28;58.20;97951.11;1761478;80;20244;-61
2021/03/30 06:06:29;;;;;;;;;;;;;;;7.37;58.00;97951.63;1755525;81;20496;-61
2021/03/30 06:08:57;;;;;;;;;;;;;;;7.49;57.63;97957.26;1749460;80;21215;-61
2021/03/30 06:11:24;;;;;;;;;;;;;;;7.59;57.46;97951.31;1760783;80;20231;-61
2021/03/30 06:13:56;;;;;;;;;;;;;;;7.64;57.25;97955.85;1756519;80;20249;-61
2021/03/30 06:16:32;;;;;;;;;;;;;;;7.65;57.23;97958.38;1772302;80;20274;-60
2021/03/30 06:19:05;;;;;;;;;;;;;;;7.67;57.06;97963.03;1777595;79;20233;-60
2021/03/30 06:21:41;;;;;;;;;;;;;;;7.68;57.18;97963.44;1757739;80;21853;-61
2021/03/30 06:24:25;;;;;;;;;;;;;;;7.74;56.71;97955.44;1776585;80;20218;-60
2021/03/30 06:26:57;;;;;;;;;;;;;;;7.75;56.82;97964.05;1761345;80;20307;-60
2021/03/30 06:29:36;;;;;;;;;;;;;;;7.79;56.67;97955.73;1777172;80;20273;-61
2021/03/30 06:32:05;;;;;;;;;;;;;;;7.83;56.49;97961.16;1762853;80;20284;-60
2021/03/30 06:34:33;;;;;;;;;;;;;;;7.89;56.50;97959.22;1767382;80;21385;-60
2021/03/30 06:37:00;;;;;;;;;;;;;;;7.98;56.13;97953.31;1760183;80;20488;-60
2021/03/30 06:39:37;;;;;;;;;;;;;;;8.00;56.50;97954.08;1792491;80;20218;-60
2021/03/30 06:42:12;;;;;;;;;;;;;;;8.09;56.21;97946.81;1792642;80;20707;-60
2021/03/30 06:44:38;;;;;;;;;;;;;;;8.20;55.97;97947.67;1791671;80;20222;-62
2021/03/30 06:47:14;;;;;;;;;;;;;;;8.29;55.81;97951.66;1792267;80;21203;-62
2021/03/30 06:50:00;;;;;;;;;;;;;;;8.37;55.78;97943.15;1787108;80;20238;-61
2021/03/30 06:52:33;;;;;;;;;;;;;;;8.44;55.67;97945.90;1785414;80;20221;-60
2021/03/30 06:55:02;;;;;;;;;;;;;;;8.61;55.60;97946.50;1792638;80;20752;-62
2021/03/30 06:57:39;;;;;;;;;;;;;;;8.80;55.30;97937.53;1770707;80;20221;-61
2021/03/30 07:00:13;;;;;;;;;;;;;;;9.02;54.90;97944.39;1771331;80;21242;-60
2021/03/30 07:02:43;;;;;;;;;;;;;;;9.23;54.50;97938.75;1788835;80;20242;-60
2021/03/30 07:05:23;;;;;;;;;;;;;;;9.41;53.64;97938.39;1765429;79;20236;-59
2021/03/30 07:07:53;;;;;;;;;;;;;;;9.48;53.41;97938.97;1787024;80;20569;-60
2021/03/30 07:10:23;;;;;;;;;;;;;;;9.57;53.40;97944.58;1763156;80;20241;-60
2021/03/30 07:12:51;;;;;;;;;;;;;;;9.69;53.08;97943.64;1777799;80;21204;-60
2021/03/30 07:15:20;;;;;;;;;;;;;;;9.80;52.80;97943.97;1790555;78;20242;-60
2021/03/30 07:17:51;;;;;;;;;;;;;;;9.96;52.21;97935.03;1761651;78;20504;-60
2021/03/30 07:20:19;;;;;;;;;;;;;;;10.07;51.72;97933.25;1779185;80;20296;-61
2021/03/30 07:22:47;;;;;;;;;;;;;;;10.12;51.73;97935.16;1762143;80;20216;-60
2021/03/30 07:25:16;;;;;;;;;;;;;;;10.17;51.44;97937.55;1763138;80;21416;-61
2021/03/30 07:27:56;;;;;;;;;;;;;;;10.31;51.73;97942.47;1761199;81;20283;-60
2021/03/30 07:30:23;;;;;;;;;;;;;;;10.60;50.78;97944.59;1760236;81;20259;-58
2021/03/30 07:32:57;;;;;;;;;;;;;;;10.89;50.51;97945.75;1788079;80;20215;-61
2021/03/30 07:35:25;;;;;;;;;;;;;;;11.16;49.78;97945.26;1789585;80;20218;-61
2021/03/30 07:38:24;;;;;;;;;;;;;;;11.36;49.50;97955.45;1789698;80;20523;-60
2021/03/30 07:40:51;;;;;;;;;;;;;;;11.65;49.25;97952.27;1789411;80;20210;-61
2021/03/30 07:43:25;;;;;;;;;;;;;;;12.17;48.78;97956.42;1788936;79;20513;-60
2021/03/30 07:45:56;;;;;;;;;;;;;;;12.59;47.32;97958.37;1787889;80;20269;-60
2021/03/30 07:48:24;;;;;;;;;;;;;;;12.85;46.81;97962.09;1783044;80;20211;-60
2021/03/30 07:51:03;;;;;;;;;;;;;;;13.19;46.30;97965.78;1789382;80;21359;-60
2021/03/30 07:53:40;;;;;;;;;;;;;;;13.44;45.58;97966.04;1776441;80;20228;-59
2021/03/30 07:56:23;;;;;;;;;;;;;;;13.60;45.27;97960.74;1758714;80;20508;-60
2021/03/30 07:58:53;;;;;;;;;;;;;;;13.81;44.86;97961.64;1754764;80;20240;-60
2021/03/30 08:01:22;;;;;;;;;;;;;;;13.98;44.54;97970.58;1777004;80;20228;-60
2021/03/30 08:03:53;;;;;;;;;;;;;;;14.09;44.48;97964.67;1773632;80;21188;-60
2021/03/30 08:06:28;;;;;;;;;;;;;;;14.17;44.18;97962.89;1786629;80;20234;-59
2021/03/30 08:09:07;;;;;;;;;;;;;;;14.25;43.67;97952.80;1786483;80;20223;-61
2021/03/30 08:11:43;;;;;;;;;;;;;;;14.28;43.58;97960.92;1786776;80;20482;-59
2021/03/30 08:14:28;;;;;;;;;;;;;;;14.43;43.37;97959.09;1789726;80;20227;-60
2021/03/30 08:16:59;;;;;;;;;;;;;;;14.48;42.81;97950.49;1786823;80;20222;-60
2021/03/30 08:19:27;;;;;;;;;;;;;;;14.67;43.40;97950.15;1761294;80;20718;-60
2021/03/30 08:22:04;;;;;;;;;;;;;;;15.12;42.19;97952.45;1789658;80;20235;-59
2021/03/30 08:24:50;;;;;;;;;;;;;;;15.50;41.52;97956.84;1789679;80;20218;-60
2021/03/30 08:27:35;;;;;;;;;;;;;;;15.85;40.67;97950.95;1788720;80;20234;-60
2021/03/30 08:30:25;;;;;;;;;;;;;;;16.18;39.72;97947.27;1777819;79;22537;-61
2021/03/30 08:32:54;;;;;;;;;;;;;;;16.67;38.94;97948.55;1786157;80;20295;-60
2021/03/30 08:35:38;;;;;;;;;;;;;;;17.18;38.01;97953.98;1757016;80;20294;-59
2021/03/30 08:38:06;;;;;;;;;;;;;;;17.44;37.26;97954.12;1786640;80;20222;-59
2021/03/30 08:40:37;;;;;;;;;;;;;;;17.39;36.96;97951.52;1786712;80;20226;-60
2021/03/30 08:43:19;;;;;;;;;;;;;;;17.48;36.93;97948.16;1786593;80;20226;-60
2021/03/30 08:46:03;;;;;;;;;;;;;;;17.54;36.88;97942.45;1781110;80;20221;-61
2021/03/30 08:48:37;;;;;;;;;;;;;;;17.70;36.43;97939.92;1726249;81;20489;-61
2021/03/30 08:51:06;;;;;;;;;;;;;;;17.84;35.61;97936.61;1753244;81;20225;-60
2021/03/30 08:53:34;;;;;;;;;;;;;;;17.93;35.43;97938.18;1755551;80;20267;-61
2021/03/30 08:56:08;;;;;;;;;;;;;;;17.98;35.13;97930.77;1755530;81;21202;-61
2021/03/30 08:58:31;;;;;;;;;;;;;;;18.02;35.16;97940.05;1774075;80;20215;-62
2021/03/30 09:01:03;;;;;;;;;;;;;;;18.30;34.61;97930.80;1775718;80;20488;-61
2021/03/30 09:03:30;;;;;;;;;;;;;;;18.60;34.17;97940.25;1755621;80;20217;-59
2021/03/30 09:05:58;;;;;;;;;;;;;;;18.92;33.61;97931.88;1755541;81;20220;-60
2021/03/30 09:08:36;;;;;;;;;;;;;;;19.56;33.68;97934.47;1755524;81;21367;-60
2021/03/30 09:11:18;;;;;;;;;;;;;;;20.27;31.91;97934.91;1761086;80;20659;-59
2021/03/30 09:14:08;;;;;;;;;;;;;;;20.22;30.96;97940.58;1762976;80;20296;-60
2021/03/30 09:16:37;;;;;;;;;;;;;;;19.75;32.08;97944.23;1755865;80;20249;-59
2021/03/30 09:19:32;;;;;;;;;;;;;;;19.48;31.42;97945.16;1755536;81;20237;-59
2021/03/30 09:22:05;;;;;;;;;;;;;;;18.97;32.44;97945.14;1781900;80;21448;-59
2021/03/30 09:27:06;;;;;;;;;;;;;;;18.91;33.41;97942.06;1782247;80;20230;-60
2021/03/30 09:29:35;;;;;;;;;;;;;;;19.05;33.42;97942.22;1782071;80;20259;-60
2021/03/30 09:32:06;;;;;;;;;;;;;;;19.19;33.17;97939.73;1786720;80;20258;-59
2021/03/30 09:34:37;;;;;;;;;;;;;;;19.35;32.84;97941.91;1787462;80;21369;-60
2021/03/30 09:37:05;;;;;;;;;;;;;;;19.42;32.66;97934.31;1769458;80;20224;-61
2021/03/30 09:39:36;;;;;;;;;;;;;;;19.47;32.56;97938.70;1758464;81;20275;-61
2021/03/30 09:42:05;;;;;;;;;;;;;;;19.43;32.69;97936.82;1760872;80;20776;-61
2021/03/30 09:44:44;;;;;;;;;;;;;;;19.38;32.60;97936.88;1788475;80;20293;-61
2021/03/30 09:47:14;;;;;;;;;;;;;;;19.31;32.92;97945.28;1786443;79;21206;-60
2021/03/30 09:49:43;;;;;;;;;;;;;;;19.24;32.71;97937.57;1759006;80;20209;-59
2021/03/30 09:52:13;;;;;;;;;;;;;;;19.19;32.92;97936.27;1758639;81;20225;-59
2021/03/30 09:54:43;;;;;;;;;;;;;;;19.26;32.74;97936.95;1758626;81;20226;-60
2021/03/30 09:57:29;;;;;;;;;;;;;;;19.40;32.54;97929.19;1758646;81;20240;-60
2021/03/30 09:59:57;;;;;;;;;;;;;;;19.76;32.36;97928.33;1758742;81;21381;-61
2021/03/30 10:02:27;;;;;;;;;;;;;;;20.18;32.19;97927.31;1783224;80;21789;-61
2021/03/30 10:04:55;;;;;;;;;;;;;;;20.48;31.59;97927.71;1789579;80;20293;-59
2021/03/30 10:07:24;;;;;;;;;;;;;;;20.53;31.51;97925.98;1789770;80;20571;-59
2021/03/30 10:10:08;;;;;;;;;;;;;;;20.58;31.32;97918.48;1789793;79;20226;-60
2021/03/30 10:13:04;;;;;;;;;;;;;;;20.63;30.92;97925.98;1788333;78;21375;-61
2021/03/30 10:15:34;;;;;;;;;;;;;;;20.33;30.91;97922.48;1720392;80;20251;-61
2021/03/30 10:18:05;;;;;;;;;;;;;;;20.02;31.38;97919.46;1773524;79;20240;-61
2021/03/30 10:20:39;;;;;;;;;;;;;;;19.85;31.93;97923.59;1773517;81;20304;-60
2021/03/30 10:23:22;;;;;;;;;;;;;;;19.78;32.02;97921.61;1771274;80;20232;-60
2021/03/30 10:25:52;;;;;;;;;;;;;;;19.76;32.31;97927.50;1773720;79;22100;-59
2021/03/30 10:28:31;;;;;;;;;;;;;;;19.76;32.38;97926.19;1773712;81;20211;-59
2021/03/30 10:31:05;;;;;;;;;;;;;;;19.67;32.26;97917.23;1766309;81;20486;-60
2021/03/30 10:33:39;;;;;;;;;;;;;;;19.61;32.04;97913.84;1736922;81;20223;-60
2021/03/30 10:36:13;;;;;;;;;;;;;;;19.52;32.16;97915.94;1737380;82;20225;-60
2021/03/30 10:38:41;;;;;;;;;;;;;;;19.42;32.39;97915.41;1741344;79;21217;-62
2021/03/30 10:41:10;;;;;;;;;;;;;;;19.23;33.00;97915.33;1759768;81;21035;-60
2021/03/30 10:43:38;;;;;;;;;;;;;;;19.14;33.09;97912.98;1760608;81;20480;-59
2021/03/30 10:46:19;;;;;;;;;;;;;;;19.02;32.85;97910.91;1751612;81;20671;-61
2021/03/30 10:49:04;;;;;;;;;;;;;;;18.76;32.88;97904.67;1737400;82;20222;-60
2021/03/30 10:51:33;;;;;;;;;;;;;;;18.58;33.53;97909.69;1739992;81;21195;-59
2021/03/30 10:54:02;;;;;;;;;;;;;;;18.65;34.08;97905.22;1764499;81;20736;-60
2021/03/30 10:56:32;;;;;;;;;;;;;;;18.67;34.05;97901.52;1764498;81;20232;-60
2021/03/30 10:58:59;;;;;;;;;;;;;;;18.52;33.54;97897.50;1737928;81;20219;-60
2021/03/30 11:01:27;;;;;;;;;;;;;;;18.33;33.68;97898.20;1737801;81;20227;-61
2021/03/30 11:03:54;;;;;;;;;;;;;;;18.19;33.68;97898.84;1738718;81;21201;-60
2021/03/30 11:06:21;;;;;;;;;;;;;;;18.11;33.75;97899.94;1744951;81;20230;-60
2021/03/30 11:08:49;;;;;;;;;;;;;;;18.11;33.92;97898.63;1737300;82;20222;-60
2021/03/30 11:11:17;;;;;;;;;;;;;;;18.19;34.51;97900.61;1737271;82;20242;-60
2021/03/30 11:13:45;;;;;;;;;;;;;;;18.34;34.39;97898.56;1737349;82;20246;-61
2021/03/30 11:16:12;;;;;;;;;;;;;;;18.35;34.53;97899.72;1755560;81;21283;-62
2021/03/30 11:18:41;;;;;;;;;;;;;;;18.33;34.67;97898.20;1767651;81;20144;-59
2021/03/30 11:21:09;;;;;;;;;;;;;;;18.30;34.66;97900.58;1767709;81;20224;-60
2021/03/30 11:23:38;;;;;;;;;;;;;;;18.19;35.01;97897.98;1767729;81;20225;-60
2021/03/30 11:26:06;;;;;;;;;;;;;;;18.05;34.48;97893.86;1767724;81;20248;-61
2021/03/30 11:28:39;;;;;;;;;;;;;;;17.83;34.74;97888.98;1751123;81;21209;-61
2021/03/30 11:31:10;;;;;;;;;;;;;;;17.63;35.19;97893.64;1754155;80;20221;-59
2021/03/30 11:33:49;;;;;;;;;;;;;;;17.49;35.51;97893.43;1760387;81;20272;-59
2021/03/30 11:36:13;;;;;;;;;;;;;;;17.35;35.53;97889.73;1757769;80;20244;-61
2021/03/30 11:38:40;;;;;;;;;;;;;;;17.14;35.96;97893.06;1760754;80;20244;-61
2021/03/30 11:41:07;;;;;;;;;;;;;;;16.83;36.19;97884.05;1739432;81;22149;-59
2021/03/30 11:43:35;;;;;;;;;;;;;;;16.58;36.52;97887.20;1755787;81;20563;-60
2021/03/30 11:46:02;;;;;;;;;;;;;;;16.36;36.95;97891.41;1765709;81;20216;-61
2021/03/30 11:48:31;;;;;;;;;;;;;;;16.25;37.10;97882.64;1750421;81;20242;-61
2021/03/30 11:50:58;;;;;;;;;;;;;;;15.99;37.72;97886.69;1766591;81;20216;-60
2021/03/30 11:53:25;;;;;;;;;;;;;;;15.76;38.21;97880.48;1748193;81;23123;-61
2021/03/30 11:55:54;;;;;;;;;;;;;;;15.71;38.32;97878.64;1761471;81;20274;-61
2021/03/30 11:58:23;;;;;;;;;;;;;;;15.72;38.82;97877.20;1737273;82;20219;-60
2021/03/30 12:00:50;;;;;;;;;;;;;;;15.76;38.67;97875.25;1741603;81;20674;-60
2021/03/30 12:03:18;;;;;;;;;;;;;;;15.69;38.51;97872.66;1766781;81;21643;-60
2021/03/30 12:05:46;;;;;;;;;;;;;;;15.65;38.67;97863.72;1765690;81;21275;-61
2021/03/30 12:08:13;;;;;;;;;;;;;;;15.61;38.73;97862.76;1758711;81;20497;-61
2021/03/30 12:10:41;;;;;;;;;;;;;;;15.61;39.74;97859.66;1756971;81;20216;-61
2021/03/30 12:13:09;;;;;;;;;;;;;;;15.77;38.92;97855.97;1751826;81;20239;-67
2021/03/30 12:15:37;;;;;;;;;;;;;;;15.87;38.70;97860.08;1738919;81;20222;-67
2021/03/30 12:18:05;;;;;;;;;;;;;;;15.94;38.65;97854.30;1767715;81;21364;-67
2021/03/30 12:20:32;;;;;;;;;;;;;;;16.10;38.74;97852.72;1767651;81;20232;-67
2021/03/30 12:23:00;;;;;;;;;;;;;;;16.22;38.40;97850.13;1767690;81;20496;-67
2021/03/30 12:25:27;;;;;;;;;;;;;;;16.16;38.36;97855.35;1767040;81;20220;-67
2021/03/30 12:27:54;;;;;;;;;;;;;;;16.04;38.42;97852.33;1737397;82;20499;-66
2021/03/30 12:30:23;;;;;;;;;;;;;;;16.03;38.91;97851.48;1737275;82;22146;-67
2021/03/30 12:32:50;;;;;;;;;;;;;;;16.12;39.05;97839.03;1738768;81;20303;-66
2021/03/30 12:35:18;;;;;;;;;;;;;;;16.19;38.92;97840.73;1762542;81;20360;-65
2021/03/30 12:37:46;;;;;;;;;;;;;;;16.23;38.63;97841.33;1760109;81;20216;-67
2021/03/30 12:40:15;;;;;;;;;;;;;;;16.06;38.40;97836.86;1755147;79;20686;-66
2021/03/30 12:42:43;;;;;;;;;;;;;;;15.90;38.60;97838.44;1748531;81;21315;-67
2021/03/30 12:45:11;;;;;;;;;;;;;;;15.88;39.08;97837.72;1760177;81;20230;-67
2021/03/30 12:47:38;;;;;;;;;;;;;;;15.91;38.86;97837.50;1754059;81;20279;-64
2021/03/30 12:50:07;;;;;;;;;;;;;;;15.64;38.78;97837.66;1765897;81;20219;-66
2021/03/30 12:52:34;;;;;;;;;;;;;;;15.27;39.82;97840.27;1755020;81;20547;-71
2021/03/30 12:55:08;;;;;;;;;;;;;;;15.21;40.25;97832.84;1765725;81;21211;-72
2021/03/30 12:57:35;;;;;;;;;;;;;;;15.34;41.20;97836.27;1762670;81;20240;-68
2021/03/30 13:00:05;;;;;;;;;;;;;;;15.46;40.88;97824.96;1754167;79;20318;-64
2021/03/30 13:02:32;;;;;;;;;;;;;;;15.64;40.56;97816.28;1748355;81;20285;-67
2021/03/30 13:05:00;;;;;;;;;;;;;;;15.81;40.51;97813.78;1760078;81;20291;-68
2021/03/30 13:07:27;;;;;;;;;;;;;;;15.99;39.90;97814.70;1753954;81;21379;-67
2021/03/30 13:09:54;;;;;;;;;;;;;;;16.14;39.67;97816.19;1765939;81;20794;-68
2021/03/30 13:12:22;;;;;;;;;;;;;;;16.26;39.31;97812.30;1765791;81;20240;-65
2021/03/30 13:14:51;;;;;;;;;;;;;;;16.32;39.18;97811.38;1765169;81;20611;-67